sensor_id;sensor_type;location;lat;lon;timestamp;P1;durP1;ratioP1;P2;durP2;ratioP2
67889;SDS011;54685;52.082;5.426;2023-02-28T00:01:08;6.20;;;2.80;;
67889;SDS011;54685;52.082;5.426;2023-02-28T00:03:35;6.22;;;2.90;;
67889;SDS011;54685;52.082;5.426;2023-02-28T00:06:02;5.55;;;2.72;;
67889;SDS011;54685;52.082;5.426;2023-02-28T00:08:33;4.90;;;2.50;;
67889;SDS011;54685;52.082;5.426;2023-02-28T00:11:02;5.18;;;2.45;;
67889;SDS011;54685;52.082;5.426;2023-02-28T00:13:31;9.05;;;2.72;;
67889;SDS011;54685;52.082;5.426;2023-02-28T00:16:03;4.05;;;2.42;;
67889;SDS011;54685;52.082;5.426;2023-02-28T00:18:32;3.55;;;2.42;;
67889;SDS011;54685;52.082;5.426;2023-02-28T00:20:59;4.97;;;2.80;;
67889;SDS011;54685;52.082;5.426;2023-02-28T00:23:26;5.82;;;2.65;;
67889;SDS011;54685;52.082;5.426;2023-02-28T00:25:53;4.88;;;2.50;;
67889;SDS011;54685;52.082;5.426;2023-02-28T00:28:21;6.80;;;2.72;;
67889;SDS011;54685;52.082;5.426;2023-02-28T00:30:48;6.40;;;2.80;;
67889;SDS011;54685;52.082;5.426;2023-02-28T00:33:15;5.50;;;3.00;;
67889;SDS011;54685;52.082;5.426;2023-02-28T00:35:41;9.57;;;2.50;;
67889;SDS011;54685;52.082;5.426;2023-02-28T00:38:08;6.60;;;2.30;;
67889;SDS011;54685;52.082;5.426;2023-02-28T00:40:35;4.40;;;2.60;;
67889;SDS011;54685;52.082;5.426;2023-02-28T00:43:02;5.28;;;2.63;;
67889;SDS011;54685;52.082;5.426;2023-02-28T00:45:30;9.85;;;3.17;;
67889;SDS011;54685;52.082;5.426;2023-02-28T00:47:57;5.40;;;2.70;;
67889;SDS011;54685;52.082;5.426;2023-02-28T00:50:24;7.63;;;2.90;;
67889;SDS011;54685;52.082;5.426;2023-02-28T00:52:50;4.95;;;2.90;;
67889;SDS011;54685;52.082;5.426;2023-02-28T00:55:19;6.95;;;2.88;;
67889;SDS011;54685;52.082;5.426;2023-02-28T00:57:47;5.65;;;2.53;;
67889;SDS011;54685;52.082;5.426;2023-02-28T01:00:13;3.88;;;2.35;;
67889;SDS011;54685;52.082;5.426;2023-02-28T01:02:41;3.97;;;2.40;;
67889;SDS011;54685;52.082;5.426;2023-02-28T01:05:08;6.00;;;2.90;;
67889;SDS011;54685;52.082;5.426;2023-02-28T01:07:38;5.30;;;2.75;;
67889;SDS011;54685;52.082;5.426;2023-02-28T01:10:04;7.78;;;2.72;;
67889;SDS011;54685;52.082;5.426;2023-02-28T01:12:32;4.32;;;3.03;;
67889;SDS011;54685;52.082;5.426;2023-02-28T01:14:58;5.20;;;2.58;;
67889;SDS011;54685;52.082;5.426;2023-02-28T01:17:25;5.57;;;3.10;;
67889;SDS011;54685;52.082;5.426;2023-02-28T01:19:53;6.88;;;3.25;;
67889;SDS011;54685;52.082;5.426;2023-02-28T01:22:23;4.95;;;2.95;;
67889;SDS011;54685;52.082;5.426;2023-02-28T01:24:50;3.92;;;2.75;;
67889;SDS011;54685;52.082;5.426;2023-02-28T01:27:17;6.10;;;3.00;;
67889;SDS011;54685;52.082;5.426;2023-02-28T01:29:44;6.60;;;3.10;;
67889;SDS011;54685;52.082;5.426;2023-02-28T01:32:11;11.90;;;2.90;;
67889;SDS011;54685;52.082;5.426;2023-02-28T01:34:37;6.65;;;3.33;;
67889;SDS011;54685;52.082;5.426;2023-02-28T01:37:04;7.75;;;2.78;;
67889;SDS011;54685;52.082;5.426;2023-02-28T01:39:31;4.90;;;2.70;;
67889;SDS011;54685;52.082;5.426;2023-02-28T01:42:09;9.02;;;3.30;;
67889;SDS011;54685;52.082;5.426;2023-02-28T01:47:29;6.20;;;2.65;;
67889;SDS011;54685;52.082;5.426;2023-02-28T01:50:07;5.45;;;3.00;;
67889;SDS011;54685;52.082;5.426;2023-02-28T01:52:41;5.07;;;2.78;;
67889;SDS011;54685;52.082;5.426;2023-02-28T01:55:10;4.30;;;2.80;;
67889;SDS011;54685;52.082;5.426;2023-02-28T01:57:39;5.80;;;2.60;;
67889;SDS011;54685;52.082;5.426;2023-02-28T02:00:15;4.97;;;2.92;;
67889;SDS011;54685;52.082;5.426;2023-02-28T02:02:47;4.53;;;2.67;;
67889;SDS011;54685;52.082;5.426;2023-02-28T02:07:48;5.57;;;2.80;;
67889;SDS011;54685;52.082;5.426;2023-02-28T02:10:21;8.97;;;2.60;;
67889;SDS011;54685;52.082;5.426;2023-02-28T02:13:14;5.70;;;2.80;;
67889;SDS011;54685;52.082;5.426;2023-02-28T02:21:57;6.07;;;2.90;;
67889;SDS011;54685;52.082;5.426;2023-02-28T02:27:28;9.43;;;3.03;;
67889;SDS011;54685;52.082;5.426;2023-02-28T02:35:52;5.60;;;2.88;;
67889;SDS011;54685;52.082;5.426;2023-02-28T02:38:57;5.68;;;2.58;;
67889;SDS011;54685;52.082;5.426;2023-02-28T02:41:26;6.50;;;2.90;;
67889;SDS011;54685;52.082;5.426;2023-02-28T02:44:11;5.22;;;2.70;;
67889;SDS011;54685;52.082;5.426;2023-02-28T02:46:44;3.70;;;2.75;;
67889;SDS011;54685;52.082;5.426;2023-02-28T02:49:15;9.23;;;2.88;;
67889;SDS011;54685;52.082;5.426;2023-02-28T02:51:50;4.43;;;2.75;;
67889;SDS011;54685;52.082;5.426;2023-02-28T02:54:21;6.80;;;2.83;;
67889;SDS011;54685;52.082;5.426;2023-02-28T02:56:55;7.13;;;3.00;;
67889;SDS011;54685;52.082;5.426;2023-02-28T02:59:25;6.00;;;2.80;;
67889;SDS011;54685;52.082;5.426;2023-02-28T03:01:56;8.55;;;3.15;;
67889;SDS011;54685;52.082;5.426;2023-02-28T03:04:27;8.38;;;2.67;;
67889;SDS011;54685;52.082;5.426;2023-02-28T03:06:58;5.22;;;2.70;;
67889;SDS011;54685;52.082;5.426;2023-02-28T03:09:28;7.30;;;2.70;;
67889;SDS011;54685;52.082;5.426;2023-02-28T03:11:57;6.90;;;3.20;;
67889;SDS011;54685;52.082;5.426;2023-02-28T03:22:14;6.20;;;3.13;;
67889;SDS011;54685;52.082;5.426;2023-02-28T03:25:06;8.18;;;3.63;;
67889;SDS011;54685;52.082;5.426;2023-02-28T03:30:17;5.85;;;3.28;;
67889;SDS011;54685;52.082;5.426;2023-02-28T03:32:58;5.85;;;3.15;;
67889;SDS011;54685;52.082;5.426;2023-02-28T03:35:32;7.22;;;3.20;;
67889;SDS011;54685;52.082;5.426;2023-02-28T03:38:07;8.05;;;3.15;;
67889;SDS011;54685;52.082;5.426;2023-02-28T03:40:46;4.32;;;2.90;;
67889;SDS011;54685;52.082;5.426;2023-02-28T03:43:28;5.72;;;3.20;;
67889;SDS011;54685;52.082;5.426;2023-02-28T03:45:58;8.43;;;2.72;;
67889;SDS011;54685;52.082;5.426;2023-02-28T03:48:31;5.72;;;2.88;;
67889;SDS011;54685;52.082;5.426;2023-02-28T03:51:24;7.63;;;3.33;;
67889;SDS011;54685;52.082;5.426;2023-02-28T03:53:56;4.65;;;2.90;;
67889;SDS011;54685;52.082;5.426;2023-02-28T03:56:59;9.85;;;3.40;;
67889;SDS011;54685;52.082;5.426;2023-02-28T03:59:49;5.53;;;3.25;;
67889;SDS011;54685;52.082;5.426;2023-02-28T04:02:23;5.82;;;3.25;;
67889;SDS011;54685;52.082;5.426;2023-02-28T04:04:51;8.20;;;3.60;;
67889;SDS011;54685;52.082;5.426;2023-02-28T04:07:20;8.07;;;3.30;;
67889;SDS011;54685;52.082;5.426;2023-02-28T04:09:47;8.13;;;3.53;;
67889;SDS011;54685;52.082;5.426;2023-02-28T04:12:14;6.22;;;3.63;;
67889;SDS011;54685;52.082;5.426;2023-02-28T04:14:40;6.00;;;3.20;;
67889;SDS011;54685;52.082;5.426;2023-02-28T04:17:07;4.32;;;2.50;;
67889;SDS011;54685;52.082;5.426;2023-02-28T04:19:34;5.20;;;2.50;;
67889;SDS011;54685;52.082;5.426;2023-02-28T04:22:01;6.40;;;2.83;;
67889;SDS011;54685;52.082;5.426;2023-02-28T04:24:28;4.25;;;2.03;;
67889;SDS011;54685;52.082;5.426;2023-02-28T04:26:56;5.00;;;2.35;;
67889;SDS011;54685;52.082;5.426;2023-02-28T04:29:25;5.45;;;2.55;;
67889;SDS011;54685;52.082;5.426;2023-02-28T04:31:54;4.15;;;2.30;;
67889;SDS011;54685;52.082;5.426;2023-02-28T04:34:24;6.30;;;2.55;;
67889;SDS011;54685;52.082;5.426;2023-02-28T04:36:52;3.20;;;2.00;;
67889;SDS011;54685;52.082;5.426;2023-02-28T04:39:40;3.38;;;2.22;;
67889;SDS011;54685;52.082;5.426;2023-02-28T04:42:11;4.03;;;2.20;;
67889;SDS011;54685;52.082;5.426;2023-02-28T04:44:38;4.72;;;2.78;;
67889;SDS011;54685;52.082;5.426;2023-02-28T04:47:05;3.35;;;2.55;;
67889;SDS011;54685;52.082;5.426;2023-02-28T04:49:36;8.43;;;2.90;;
67889;SDS011;54685;52.082;5.426;2023-02-28T04:52:03;7.60;;;2.55;;
67889;SDS011;54685;52.082;5.426;2023-02-28T04:54:30;7.93;;;2.63;;
67889;SDS011;54685;52.082;5.426;2023-02-28T04:56:58;4.72;;;2.70;;
67889;SDS011;54685;52.082;5.426;2023-02-28T04:59:28;4.90;;;2.22;;
67889;SDS011;54685;52.082;5.426;2023-02-28T05:01:55;4.60;;;2.42;;
67889;SDS011;54685;52.082;5.426;2023-02-28T05:04:24;3.40;;;1.90;;
67889;SDS011;54685;52.082;5.426;2023-02-28T05:06:51;2.95;;;2.13;;
67889;SDS011;54685;52.082;5.426;2023-02-28T05:09:18;4.50;;;2.03;;
67889;SDS011;54685;52.082;5.426;2023-02-28T05:11:45;2.75;;;2.10;;
67889;SDS011;54685;52.082;5.426;2023-02-28T05:14:13;4.40;;;2.38;;
67889;SDS011;54685;52.082;5.426;2023-02-28T05:16:43;4.80;;;2.22;;
67889;SDS011;54685;52.082;5.426;2023-02-28T05:19:10;4.45;;;2.20;;
67889;SDS011;54685;52.082;5.426;2023-02-28T05:21:40;9.00;;;2.88;;
67889;SDS011;54685;52.082;5.426;2023-02-28T05:24:15;2.30;;;2.08;;
67889;SDS011;54685;52.082;5.426;2023-02-28T05:26:49;4.55;;;1.95;;
67889;SDS011;54685;52.082;5.426;2023-02-28T05:29:18;2.20;;;1.80;;
67889;SDS011;54685;52.082;5.426;2023-02-28T05:31:48;3.58;;;2.13;;
67889;SDS011;54685;52.082;5.426;2023-02-28T05:34:15;3.92;;;2.10;;
67889;SDS011;54685;52.082;5.426;2023-02-28T05:36:42;3.20;;;1.85;;
67889;SDS011;54685;52.082;5.426;2023-02-28T05:39:09;3.33;;;2.17;;
67889;SDS011;54685;52.082;5.426;2023-02-28T05:41:42;4.07;;;2.20;;
67889;SDS011;54685;52.082;5.426;2023-02-28T05:44:10;4.38;;;2.17;;
67889;SDS011;54685;52.082;5.426;2023-02-28T05:46:38;3.10;;;2.30;;
67889;SDS011;54685;52.082;5.426;2023-02-28T05:49:05;7.38;;;2.40;;
67889;SDS011;54685;52.082;5.426;2023-02-28T05:51:33;5.90;;;2.25;;
67889;SDS011;54685;52.082;5.426;2023-02-28T05:54:02;5.30;;;1.88;;
67889;SDS011;54685;52.082;5.426;2023-02-28T05:56:29;4.15;;;2.30;;
67889;SDS011;54685;52.082;5.426;2023-02-28T05:58:56;5.70;;;4.28;;
67889;SDS011;54685;52.082;5.426;2023-02-28T06:01:24;2.63;;;2.38;;
67889;SDS011;54685;52.082;5.426;2023-02-28T06:04:08;7.72;;;2.65;;
67889;SDS011;54685;52.082;5.426;2023-02-28T06:06:51;5.07;;;2.30;;
67889;SDS011;54685;52.082;5.426;2023-02-28T06:09:18;4.63;;;2.47;;
67889;SDS011;54685;52.082;5.426;2023-02-28T06:11:45;11.10;;;2.50;;
67889;SDS011;54685;52.082;5.426;2023-02-28T06:14:14;4.90;;;2.40;;
67889;SDS011;54685;52.082;5.426;2023-02-28T06:16:43;3.72;;;2.40;;
67889;SDS011;54685;52.082;5.426;2023-02-28T06:19:10;2.30;;;2.08;;
67889;SDS011;54685;52.082;5.426;2023-02-28T06:21:37;3.58;;;2.30;;
67889;SDS011;54685;52.082;5.426;2023-02-28T06:24:03;9.88;;;3.22;;
67889;SDS011;54685;52.082;5.426;2023-02-28T06:26:33;3.22;;;2.60;;
67889;SDS011;54685;52.082;5.426;2023-02-28T06:29:03;9.48;;;2.45;;
67889;SDS011;54685;52.082;5.426;2023-02-28T06:31:29;5.43;;;2.60;;
67889;SDS011;54685;52.082;5.426;2023-02-28T06:34:06;6.25;;;3.25;;
67889;SDS011;54685;52.082;5.426;2023-02-28T06:36:33;4.47;;;2.90;;
67889;SDS011;54685;52.082;5.426;2023-02-28T06:39:00;5.82;;;4.18;;
67889;SDS011;54685;52.082;5.426;2023-02-28T06:41:27;5.35;;;3.05;;
67889;SDS011;54685;52.082;5.426;2023-02-28T06:44:19;4.55;;;2.75;;
67889;SDS011;54685;52.082;5.426;2023-02-28T06:46:46;4.40;;;2.67;;
67889;SDS011;54685;52.082;5.426;2023-02-28T06:49:13;7.30;;;2.83;;
67889;SDS011;54685;52.082;5.426;2023-02-28T06:51:41;3.55;;;2.50;;
67889;SDS011;54685;52.082;5.426;2023-02-28T06:54:11;8.77;;;2.88;;
67889;SDS011;54685;52.082;5.426;2023-02-28T06:56:39;4.50;;;3.05;;
67889;SDS011;54685;52.082;5.426;2023-02-28T06:59:06;2.95;;;2.55;;
67889;SDS011;54685;52.082;5.426;2023-02-28T07:01:33;3.22;;;2.60;;
67889;SDS011;54685;52.082;5.426;2023-02-28T07:04:11;6.95;;;3.08;;
67889;SDS011;54685;52.082;5.426;2023-02-28T07:06:39;6.40;;;3.35;;
67889;SDS011;54685;52.082;5.426;2023-02-28T07:09:06;4.43;;;3.35;;
67889;SDS011;54685;52.082;5.426;2023-02-28T07:11:36;4.90;;;3.03;;
67889;SDS011;54685;52.082;5.426;2023-02-28T07:14:26;7.30;;;3.95;;
67889;SDS011;54685;52.082;5.426;2023-02-28T07:17:01;9.95;;;3.50;;
67889;SDS011;54685;52.082;5.426;2023-02-28T07:23:30;5.25;;;3.22;;
67889;SDS011;54685;52.082;5.426;2023-02-28T07:26:51;3.70;;;3.13;;
67889;SDS011;54685;52.082;5.426;2023-02-28T07:29:18;4.50;;;3.13;;
67889;SDS011;54685;52.082;5.426;2023-02-28T07:32:26;6.85;;;3.03;;
67889;SDS011;54685;52.082;5.426;2023-02-28T07:35:08;5.90;;;3.30;;
67889;SDS011;54685;52.082;5.426;2023-02-28T07:37:38;4.57;;;3.47;;
67889;SDS011;54685;52.082;5.426;2023-02-28T07:41:01;5.00;;;3.63;;
67889;SDS011;54685;52.082;5.426;2023-02-28T08:02:58;6.13;;;3.30;;
67889;SDS011;54685;52.082;5.426;2023-02-28T08:05:27;4.07;;;3.13;;
67889;SDS011;54685;52.082;5.426;2023-02-28T08:07:53;6.00;;;3.10;;
67889;SDS011;54685;52.082;5.426;2023-02-28T08:10:21;10.38;;;3.53;;
67889;SDS011;54685;52.082;5.426;2023-02-28T08:12:48;6.53;;;3.38;;
67889;SDS011;54685;52.082;5.426;2023-02-28T08:15:15;5.05;;;3.00;;
67889;SDS011;54685;52.082;5.426;2023-02-28T08:17:42;7.05;;;3.40;;
67889;SDS011;54685;52.082;5.426;2023-02-28T08:20:09;6.28;;;3.22;;
67889;SDS011;54685;52.082;5.426;2023-02-28T08:22:37;6.75;;;2.88;;
67889;SDS011;54685;52.082;5.426;2023-02-28T08:25:04;5.80;;;3.35;;
67889;SDS011;54685;52.082;5.426;2023-02-28T08:47:55;5.00;;;2.70;;
67889;SDS011;54685;52.082;5.426;2023-02-28T08:50:22;5.85;;;2.63;;
67889;SDS011;54685;52.082;5.426;2023-02-28T08:52:49;5.65;;;3.15;;
67889;SDS011;54685;52.082;5.426;2023-02-28T08:55:15;4.65;;;2.75;;
67889;SDS011;54685;52.082;5.426;2023-02-28T08:57:42;4.95;;;2.17;;
67889;SDS011;54685;52.082;5.426;2023-02-28T09:00:13;9.20;;;2.60;;
67889;SDS011;54685;52.082;5.426;2023-02-28T09:02:41;5.43;;;2.30;;
67889;SDS011;54685;52.082;5.426;2023-02-28T09:05:09;3.20;;;2.42;;
67889;SDS011;54685;52.082;5.426;2023-02-28T09:07:36;2.72;;;1.98;;
67889;SDS011;54685;52.082;5.426;2023-02-28T09:10:06;5.20;;;2.00;;
67889;SDS011;54685;52.082;5.426;2023-02-28T09:12:33;2.92;;;1.92;;
67889;SDS011;54685;52.082;5.426;2023-02-28T09:15:02;4.72;;;2.10;;
67889;SDS011;54685;52.082;5.426;2023-02-28T09:17:29;6.65;;;2.33;;
67889;SDS011;54685;52.082;5.426;2023-02-28T09:19:56;3.78;;;1.58;;
67889;SDS011;54685;52.082;5.426;2023-02-28T09:22:23;4.28;;;1.50;;
67889;SDS011;54685;52.082;5.426;2023-02-28T09:24:50;1.80;;;1.27;;
67889;SDS011;54685;52.082;5.426;2023-02-28T09:27:17;2.05;;;1.20;;
67889;SDS011;54685;52.082;5.426;2023-02-28T09:29:44;1.85;;;1.27;;
67889;SDS011;54685;52.082;5.426;2023-02-28T09:32:10;2.30;;;1.00;;
67889;SDS011;54685;52.082;5.426;2023-02-28T09:34:39;2.25;;;1.02;;
67889;SDS011;54685;52.082;5.426;2023-02-28T09:37:07;1.50;;;1.15;;
67889;SDS011;54685;52.082;5.426;2023-02-28T09:39:34;1.60;;;1.05;;
67889;SDS011;54685;52.082;5.426;2023-02-28T09:42:01;1.77;;;1.20;;
67889;SDS011;54685;52.082;5.426;2023-02-28T09:44:34;3.67;;;1.27;;
67889;SDS011;54685;52.082;5.426;2023-02-28T09:47:17;4.00;;;1.00;;
67889;SDS011;54685;52.082;5.426;2023-02-28T09:49:53;1.75;;;1.20;;
67889;SDS011;54685;52.082;5.426;2023-02-28T09:52:25;2.35;;;1.02;;
67889;SDS011;54685;52.082;5.426;2023-02-28T10:01:06;1.02;;;0.98;;
67889;SDS011;54685;52.082;5.426;2023-02-28T10:03:40;1.40;;;1.30;;
67889;SDS011;54685;52.082;5.426;2023-02-28T10:06:20;1.10;;;1.00;;
67889;SDS011;54685;52.082;5.426;2023-02-28T10:08:54;1.40;;;1.10;;
67889;SDS011;54685;52.082;5.426;2023-02-28T10:11:28;1.88;;;1.45;;
67889;SDS011;54685;52.082;5.426;2023-02-28T10:14:02;2.13;;;1.13;;
67889;SDS011;54685;52.082;5.426;2023-02-28T10:16:51;2.88;;;1.40;;
67889;SDS011;54685;52.082;5.426;2023-02-28T10:19:38;2.10;;;1.40;;
67889;SDS011;54685;52.082;5.426;2023-02-28T10:22:17;3.50;;;1.35;;
67889;SDS011;54685;52.082;5.426;2023-02-28T10:24:54;1.20;;;1.08;;
67889;SDS011;54685;52.082;5.426;2023-02-28T10:27:31;2.47;;;1.23;;
67889;SDS011;54685;52.082;5.426;2023-02-28T10:32:55;1.58;;;1.15;;
67889;SDS011;54685;52.082;5.426;2023-02-28T10:35:43;2.45;;;1.38;;
67889;SDS011;54685;52.082;5.426;2023-02-28T10:38:15;3.22;;;1.20;;
67889;SDS011;54685;52.082;5.426;2023-02-28T10:40:45;3.53;;;1.30;;
67889;SDS011;54685;52.082;5.426;2023-02-28T10:51:02;2.25;;;1.25;;
67889;SDS011;54685;52.082;5.426;2023-02-28T10:53:51;1.77;;;1.20;;
67889;SDS011;54685;52.082;5.426;2023-02-28T10:56:29;2.65;;;1.40;;
67889;SDS011;54685;52.082;5.426;2023-02-28T11:02:38;1.48;;;1.20;;
67889;SDS011;54685;52.082;5.426;2023-02-28T11:05:31;3.28;;;1.42;;
67889;SDS011;54685;52.082;5.426;2023-02-28T11:11:01;1.67;;;1.20;;
67889;SDS011;54685;52.082;5.426;2023-02-28T11:13:33;3.33;;;1.52;;
67889;SDS011;54685;52.082;5.426;2023-02-28T11:16:03;1.48;;;1.30;;
67889;SDS011;54685;52.082;5.426;2023-02-28T11:18:36;1.65;;;1.23;;
67889;SDS011;54685;52.082;5.426;2023-02-28T11:21:09;2.05;;;1.40;;
67889;SDS011;54685;52.082;5.426;2023-02-28T11:23:44;2.13;;;1.40;;
67889;SDS011;54685;52.082;5.426;2023-02-28T11:26:15;2.30;;;1.58;;
67889;SDS011;54685;52.082;5.426;2023-02-28T11:34:23;2.75;;;1.45;;
67889;SDS011;54685;52.082;5.426;2023-02-28T11:37:52;1.75;;;1.15;;
67889;SDS011;54685;52.082;5.426;2023-02-28T11:56:22;1.63;;;1.10;;
67889;SDS011;54685;52.082;5.426;2023-02-28T12:01:38;5.25;;;1.23;;
67889;SDS011;54685;52.082;5.426;2023-02-28T12:15:54;2.85;;;1.15;;
67889;SDS011;54685;52.082;5.426;2023-02-28T12:26:38;1.90;;;1.25;;
67889;SDS011;54685;52.082;5.426;2023-02-28T12:47:24;3.88;;;1.42;;
67889;SDS011;54685;52.082;5.426;2023-02-28T12:55:23;2.30;;;1.58;;
67889;SDS011;54685;52.082;5.426;2023-02-28T12:58:25;1.50;;;1.23;;
67889;SDS011;54685;52.082;5.426;2023-02-28T13:01:12;3.47;;;1.30;;
67889;SDS011;54685;52.082;5.426;2023-02-28T13:50:23;2.88;;;1.42;;
67889;SDS011;54685;52.082;5.426;2023-02-28T14:00:44;2.28;;;1.50;;
67889;SDS011;54685;52.082;5.426;2023-02-28T14:06:54;2.83;;;2.00;;
67889;SDS011;54685;52.082;5.426;2023-02-28T14:09:24;1.60;;;1.40;;
67889;SDS011;54685;52.082;5.426;2023-02-28T14:11:57;2.33;;;1.45;;
67889;SDS011;54685;52.082;5.426;2023-02-28T14:14:58;2.60;;;1.50;;
67889;SDS011;54685;52.082;5.426;2023-02-28T14:17:45;1.95;;;1.50;;
67889;SDS011;54685;52.082;5.426;2023-02-28T14:20:20;2.10;;;1.17;;
67889;SDS011;54685;52.082;5.426;2023-02-28T14:22:58;2.40;;;1.13;;
67889;SDS011;54685;52.082;5.426;2023-02-28T14:25:53;3.10;;;1.45;;
67889;SDS011;54685;52.082;5.426;2023-02-28T14:31:22;2.28;;;1.55;;
67889;SDS011;54685;52.082;5.426;2023-02-28T14:33:57;2.92;;;1.65;;
67889;SDS011;54685;52.082;5.426;2023-02-28T14:36:35;1.45;;;1.20;;
67889;SDS011;54685;52.082;5.426;2023-02-28T14:39:26;4.53;;;1.70;;
67889;SDS011;54685;52.082;5.426;2023-02-28T14:41:57;4.00;;;1.65;;
67889;SDS011;54685;52.082;5.426;2023-02-28T14:44:31;4.30;;;1.60;;
67889;SDS011;54685;52.082;5.426;2023-02-28T14:47:01;2.50;;;1.45;;
67889;SDS011;54685;52.082;5.426;2023-02-28T14:49:34;1.30;;;1.20;;
67889;SDS011;54685;52.082;5.426;2023-02-28T14:54:43;4.05;;;1.75;;
67889;SDS011;54685;52.082;5.426;2023-02-28T14:57:21;1.92;;;1.50;;
67889;SDS011;54685;52.082;5.426;2023-02-28T15:00:14;2.42;;;1.42;;
67889;SDS011;54685;52.082;5.426;2023-02-28T15:02:41;3.85;;;1.38;;
67889;SDS011;54685;52.082;5.426;2023-02-28T15:07:36;1.40;;;1.30;;
67889;SDS011;54685;52.082;5.426;2023-02-28T15:10:17;2.33;;;1.50;;
67889;SDS011;54685;52.082;5.426;2023-02-28T15:15:26;1.92;;;1.50;;
67889;SDS011;54685;52.082;5.426;2023-02-28T15:21:08;2.33;;;1.20;;
67889;SDS011;54685;52.082;5.426;2023-02-28T15:23:39;2.17;;;1.40;;
67889;SDS011;54685;52.082;5.426;2023-02-28T15:26:18;1.70;;;1.13;;
67889;SDS011;54685;52.082;5.426;2023-02-28T15:28:50;1.70;;;1.50;;
67889;SDS011;54685;52.082;5.426;2023-02-28T15:31:26;1.77;;;1.40;;
67889;SDS011;54685;52.082;5.426;2023-02-28T15:34:05;2.78;;;1.40;;
67889;SDS011;54685;52.082;5.426;2023-02-28T15:36:33;1.30;;;1.20;;
67889;SDS011;54685;52.082;5.426;2023-02-28T15:39:17;2.30;;;1.48;;
67889;SDS011;54685;52.082;5.426;2023-02-28T15:41:47;2.55;;;1.33;;
67889;SDS011;54685;52.082;5.426;2023-02-28T15:44:16;3.00;;;1.50;;
67889;SDS011;54685;52.082;5.426;2023-02-28T15:49:25;2.10;;;1.50;;
67889;SDS011;54685;52.082;5.426;2023-02-28T15:51:53;2.88;;;1.30;;
67889;SDS011;54685;52.082;5.426;2023-02-28T15:54:24;2.35;;;1.38;;
67889;SDS011;54685;52.082;5.426;2023-02-28T15:56:56;2.35;;;1.40;;
67889;SDS011;54685;52.082;5.426;2023-02-28T15:59:25;5.10;;;1.40;;
67889;SDS011;54685;52.082;5.426;2023-02-28T16:02:12;2.45;;;1.33;;
67889;SDS011;54685;52.082;5.426;2023-02-28T16:04:58;4.65;;;1.45;;
67889;SDS011;54685;52.082;5.426;2023-02-28T16:07:32;1.50;;;1.38;;
67889;SDS011;54685;52.082;5.426;2023-02-28T16:10:00;2.75;;;1.50;;
67889;SDS011;54685;52.082;5.426;2023-02-28T16:12:28;2.33;;;1.48;;
67889;SDS011;54685;52.082;5.426;2023-02-28T16:15:00;2.47;;;1.50;;
67889;SDS011;54685;52.082;5.426;2023-02-28T16:17:35;2.92;;;1.40;;
67889;SDS011;54685;52.082;5.426;2023-02-28T16:20:21;3.25;;;1.48;;
67889;SDS011;54685;52.082;5.426;2023-02-28T16:22:50;1.42;;;1.30;;
67889;SDS011;54685;52.082;5.426;2023-02-28T16:25:18;1.70;;;1.33;;
67889;SDS011;54685;52.082;5.426;2023-02-28T16:27:48;1.88;;;1.27;;
67889;SDS011;54685;52.082;5.426;2023-02-28T16:30:20;2.60;;;1.00;;
67889;SDS011;54685;52.082;5.426;2023-02-28T16:32:50;1.10;;;1.02;;
67889;SDS011;54685;52.082;5.426;2023-02-28T16:35:18;4.28;;;1.35;;
67889;SDS011;54685;52.082;5.426;2023-02-28T16:37:45;1.92;;;1.30;;
67889;SDS011;54685;52.082;5.426;2023-02-28T16:40:23;3.05;;;1.40;;
67889;SDS011;54685;52.082;5.426;2023-02-28T16:42:57;3.00;;;1.30;;
67889;SDS011;54685;52.082;5.426;2023-02-28T16:45:26;3.30;;;1.40;;
67889;SDS011;54685;52.082;5.426;2023-02-28T16:47:55;2.42;;;1.33;;
67889;SDS011;54685;52.082;5.426;2023-02-28T16:50:27;4.88;;;1.83;;
67889;SDS011;54685;52.082;5.426;2023-02-28T16:52:56;4.50;;;1.30;;
67889;SDS011;54685;52.082;5.426;2023-02-28T16:55:32;4.05;;;1.60;;
67889;SDS011;54685;52.082;5.426;2023-02-28T16:58:03;2.60;;;1.40;;
67889;SDS011;54685;52.082;5.426;2023-02-28T17:00:30;5.40;;;1.67;;
67889;SDS011;54685;52.082;5.426;2023-02-28T17:02:58;5.88;;;1.95;;
67889;SDS011;54685;52.082;5.426;2023-02-28T17:05:25;5.95;;;1.90;;
67889;SDS011;54685;52.082;5.426;2023-02-28T17:07:55;9.80;;;1.77;;
67889;SDS011;54685;52.082;5.426;2023-02-28T17:10:23;11.60;;;1.60;;
67889;SDS011;54685;52.082;5.426;2023-02-28T17:12:54;8.05;;;1.80;;
67889;SDS011;54685;52.082;5.426;2023-02-28T17:15:34;3.33;;;1.60;;
67889;SDS011;54685;52.082;5.426;2023-02-28T17:18:03;10.68;;;1.63;;
67889;SDS011;54685;52.082;5.426;2023-02-28T17:20:34;6.13;;;1.70;;
67889;SDS011;54685;52.082;5.426;2023-02-28T17:23:00;5.32;;;1.90;;
67889;SDS011;54685;52.082;5.426;2023-02-28T17:25:27;4.25;;;1.60;;
67889;SDS011;54685;52.082;5.426;2023-02-28T17:27:54;8.75;;;1.88;;
67889;SDS011;54685;52.082;5.426;2023-02-28T17:30:23;5.35;;;1.60;;
67889;SDS011;54685;52.082;5.426;2023-02-28T17:33:38;6.47;;;1.90;;
67889;SDS011;54685;52.082;5.426;2023-02-28T17:36:41;9.88;;;1.55;;
67889;SDS011;54685;52.082;5.426;2023-02-28T17:39:41;6.60;;;1.90;;
67889;SDS011;54685;52.082;5.426;2023-02-28T17:42:15;5.38;;;1.90;;
67889;SDS011;54685;52.082;5.426;2023-02-28T17:44:44;5.68;;;2.10;;
67889;SDS011;54685;52.082;5.426;2023-02-28T17:47:11;6.38;;;2.30;;
67889;SDS011;54685;52.082;5.426;2023-02-28T17:49:38;3.80;;;2.00;;
67889;SDS011;54685;52.082;5.426;2023-02-28T17:52:18;3.60;;;2.05;;
67889;SDS011;54685;52.082;5.426;2023-02-28T17:54:45;5.20;;;2.20;;
67889;SDS011;54685;52.082;5.426;2023-02-28T17:57:14;5.43;;;3.08;;
67889;SDS011;54685;52.082;5.426;2023-02-28T17:59:42;5.75;;;3.20;;
67889;SDS011;54685;52.082;5.426;2023-02-28T18:06:43;5.40;;;2.17;;
67889;SDS011;54685;52.082;5.426;2023-02-28T18:09:26;3.97;;;2.25;;
67889;SDS011;54685;52.082;5.426;2023-02-28T18:16:18;2.55;;;2.00;;
67889;SDS011;54685;52.082;5.426;2023-02-28T18:30:13;5.88;;;2.75;;
67889;SDS011;54685;52.082;5.426;2023-02-28T18:57:34;5.85;;;2.95;;
67889;SDS011;54685;52.082;5.426;2023-02-28T19:00:01;4.22;;;2.85;;
67889;SDS011;54685;52.082;5.426;2023-02-28T19:05:31;4.40;;;3.10;;
67889;SDS011;54685;52.082;5.426;2023-02-28T19:16:09;5.82;;;3.40;;
67889;SDS011;54685;52.082;5.426;2023-02-28T19:33:53;4.28;;;2.70;;
67889;SDS011;54685;52.082;5.426;2023-02-28T19:37:17;9.23;;;3.20;;
67889;SDS011;54685;52.082;5.426;2023-02-28T19:39:44;4.55;;;3.30;;
67889;SDS011;54685;52.082;5.426;2023-02-28T19:42:15;4.28;;;3.38;;
67889;SDS011;54685;52.082;5.426;2023-02-28T19:44:43;7.25;;;3.70;;
67889;SDS011;54685;52.082;5.426;2023-02-28T19:47:10;6.03;;;3.63;;
67889;SDS011;54685;52.082;5.426;2023-02-28T19:49:38;5.18;;;3.60;;
67889;SDS011;54685;52.082;5.426;2023-02-28T19:52:04;9.05;;;4.00;;
67889;SDS011;54685;52.082;5.426;2023-02-28T19:54:35;6.53;;;4.30;;
67889;SDS011;54685;52.082;5.426;2023-02-28T19:57:02;7.60;;;4.50;;
67889;SDS011;54685;52.082;5.426;2023-02-28T19:59:29;6.07;;;3.75;;
67889;SDS011;54685;52.082;5.426;2023-02-28T20:02:12;5.38;;;3.85;;
67889;SDS011;54685;52.082;5.426;2023-02-28T20:04:41;8.02;;;4.40;;
67889;SDS011;54685;52.082;5.426;2023-02-28T20:07:28;9.32;;;5.40;;
67889;SDS011;54685;52.082;5.426;2023-02-28T20:09:55;6.45;;;4.18;;
67889;SDS011;54685;52.082;5.426;2023-02-28T20:12:31;6.07;;;4.22;;
67889;SDS011;54685;52.082;5.426;2023-02-28T20:14:58;5.30;;;4.22;;
67889;SDS011;54685;52.082;5.426;2023-02-28T20:17:25;4.88;;;4.18;;
67889;SDS011;54685;52.082;5.426;2023-02-28T20:19:53;9.27;;;4.32;;
67889;SDS011;54685;52.082;5.426;2023-02-28T20:22:20;7.20;;;3.60;;
67889;SDS011;54685;52.082;5.426;2023-02-28T20:24:46;5.57;;;3.72;;
67889;SDS011;54685;52.082;5.426;2023-02-28T20:27:13;7.50;;;4.18;;
67889;SDS011;54685;52.082;5.426;2023-02-28T20:29:40;7.30;;;3.78;;
67889;SDS011;54685;52.082;5.426;2023-02-28T20:32:07;10.48;;;5.22;;